Athens Township, Pennsylvania
Current Conditions -  °F | °C
As of 7:53 AM on Saturday 25 Oct 2014 (Local Time) from KBGM Reporting Station
Overcast Overcast  
Wind Chill: 39°   Ceiling: 5000
Heat Index: 43°   Visibility: 10mi
Dew Point: 36°   Wind: 6mph
Humidity: 76%   Direction: 210°SSW
Pressure: 29.85"   Gusts: NA
Location:  41.9771°N, 76.4144°W
Report Text: KBGM 251153Z 21005KT 10SM OVC050 06/02 A2985 RMK AO2 SLP114 T00610022 10061 20039 58006
Loading
Personal Weather Stations






























Interactive Weather Map
Tropical Storm Tracking
New forecast layout! Learn more

10-Day Weather Forecast

Advertisements
Track Severe Weather on mobile